createdAt,value
2023-02-21T00:02:42.677Z,59.22
2023-02-21T00:05:28.135Z,59.14
2023-02-21T00:08:12.996Z,59.22
2023-02-21T00:10:57.758Z,59.20
2023-02-21T00:13:42.649Z,59.42
2023-02-21T00:16:27.667Z,59.68
2023-02-21T00:19:12.482Z,59.44
2023-02-21T00:21:57.214Z,59.28
2023-02-21T00:24:42.072Z,58.84
2023-02-21T00:27:26.899Z,59.47
2023-02-21T00:30:12.331Z,59.51
2023-02-21T00:32:57.557Z,60.09
2023-02-21T00:35:42.764Z,59.57
2023-02-21T00:38:29.900Z,60.05
2023-02-21T00:41:15.345Z,59.73
2023-02-21T00:44:00.402Z,60.27
2023-02-21T00:46:45.632Z,60.36
2023-02-21T00:49:30.533Z,60.53
2023-02-21T00:52:15.381Z,61.17
2023-02-21T00:55:00.160Z,60.88
2023-02-21T00:57:46.327Z,60.71
2023-02-21T01:00:37.814Z,60.78
2023-02-21T01:03:23.589Z,61.34
2023-02-21T01:06:09.367Z,61.22
2023-02-21T01:08:54.632Z,60.98
2023-02-21T01:11:41.000Z,61.52
2023-02-21T01:14:28.446Z,61.50
2023-02-21T01:17:13.977Z,61.41
2023-02-21T01:20:00.582Z,61.26
2023-02-21T01:22:46.875Z,60.95
2023-02-21T01:25:32.636Z,60.73
2023-02-21T01:28:17.904Z,62.26
2023-02-21T01:31:02.870Z,62.31
2023-02-21T01:33:47.709Z,62.12
2023-02-21T01:36:32.498Z,61.85
2023-02-21T01:39:17.376Z,62.22
2023-02-21T01:42:02.216Z,62.00
2023-02-21T01:44:55.242Z,62.39
2023-02-21T01:47:40.416Z,63.05
2023-02-21T01:50:47.978Z,63.89
2023-02-21T01:53:41.312Z,64.09
2023-02-21T01:56:29.417Z,63.84
2023-02-21T01:59:18.946Z,62.86
2023-02-21T02:02:10.836Z,62.48
2023-02-21T02:04:56.259Z,62.10
2023-02-21T02:07:41.455Z,62.04
2023-02-21T02:10:29.246Z,62.04
2023-02-21T02:13:14.159Z,61.35
2023-02-21T02:15:49.536Z,61.15
2023-02-21T02:18:31.062Z,62.06
2023-02-21T02:21:12.947Z,61.83
2023-02-21T02:23:49.492Z,62.48
2023-02-21T02:27:00.337Z,62.98
2023-02-21T02:29:51.117Z,62.55
2023-02-21T02:32:50.957Z,62.42
2023-02-21T02:35:56.399Z,62.00
2023-02-21T02:38:39.260Z,62.25
2023-02-21T02:41:17.564Z,62.46
2023-02-21T02:43:55.627Z,62.50
2023-02-21T02:46:26.955Z,62.70
2023-02-21T02:49:07.941Z,62.79
2023-02-21T02:51:36.041Z,62.78
2023-02-21T02:54:02.949Z,62.37
2023-02-21T02:56:30.065Z,62.32
2023-02-21T02:59:05.641Z,62.40
2023-02-21T03:02:09.350Z,62.04
2023-02-21T03:05:06.914Z,61.74
2023-02-21T03:07:58.140Z,61.84
2023-02-21T03:10:34.304Z,61.68
2023-02-21T03:13:12.098Z,61.92
2023-02-21T03:15:49.722Z,62.70
2023-02-21T03:18:31.876Z,62.61
2023-02-21T03:21:01.202Z,62.38
2023-02-21T03:23:31.878Z,62.39
2023-02-21T03:26:01.196Z,62.77
2023-02-21T03:28:29.990Z,62.73
2023-02-21T03:31:02.185Z,62.50
2023-02-21T03:33:28.590Z,62.25
2023-02-21T03:35:55.235Z,62.62
2023-02-21T03:38:21.582Z,62.86
2023-02-21T03:40:47.923Z,63.52
2023-02-21T03:43:14.271Z,63.60
2023-02-21T03:45:40.725Z,63.55
2023-02-21T03:48:07.210Z,63.82
2023-02-21T03:50:33.582Z,63.65
2023-02-21T03:53:00.035Z,62.79
2023-02-21T03:55:26.380Z,63.92
2023-02-21T03:57:53.099Z,63.08
2023-02-21T04:00:20.057Z,63.49
2023-02-21T04:02:46.393Z,63.83
2023-02-21T04:05:12.815Z,63.12
2023-02-21T04:07:39.329Z,62.57
2023-02-21T04:10:06.375Z,62.39
2023-02-21T04:12:32.735Z,62.73
2023-02-21T04:14:59.110Z,63.09
2023-02-21T04:17:25.657Z,63.52
2023-02-21T04:19:52.197Z,63.33
2023-02-21T04:22:18.636Z,63.08
2023-02-21T04:24:45.069Z,62.45
2023-02-21T04:27:11.424Z,62.70
2023-02-21T04:29:37.825Z,62.58
2023-02-21T04:32:04.383Z,63.03
2023-02-21T04:34:30.762Z,62.15
2023-02-21T04:36:57.135Z,63.21
2023-02-21T04:39:23.520Z,63.34
2023-02-21T04:41:49.892Z,63.52
2023-02-21T04:44:18.114Z,63.93
2023-02-21T04:46:44.465Z,63.37
2023-02-21T04:49:13.259Z,63.21
2023-02-21T04:51:39.842Z,62.75
2023-02-21T04:54:07.674Z,62.88
2023-02-21T04:56:34.294Z,62.95
2023-02-21T04:59:00.680Z,63.18
2023-02-21T05:01:30.528Z,62.96
2023-02-21T05:03:58.187Z,62.82
2023-02-21T05:06:26.369Z,62.66
2023-02-21T05:08:53.205Z,63.00
2023-02-21T05:11:20.990Z,62.82
2023-02-21T05:13:47.828Z,63.04
2023-02-21T05:16:14.552Z,62.79
2023-02-21T05:18:45.524Z,63.04
2023-02-21T05:21:12.232Z,62.71
2023-02-21T05:23:40.926Z,62.70
2023-02-21T05:26:12.857Z,62.50
2023-02-21T05:28:40.614Z,62.35
2023-02-21T05:31:07.421Z,63.28
2023-02-21T05:33:33.953Z,63.29
2023-02-21T05:36:00.548Z,63.08
2023-02-21T05:38:27.584Z,63.30
2023-02-21T05:40:54.451Z,62.75
2023-02-21T05:43:21.438Z,62.57
2023-02-21T05:45:47.887Z,63.17
2023-02-21T05:48:14.630Z,63.01
2023-02-21T05:50:40.986Z,63.17
2023-02-21T05:53:09.748Z,63.41
2023-02-21T05:55:36.814Z,62.75
2023-02-21T05:58:03.226Z,62.99
2023-02-21T06:00:31.317Z,63.54
2023-02-21T06:02:57.767Z,63.94
2023-02-21T06:05:24.637Z,64.58
2023-02-21T06:07:51.513Z,64.11
2023-02-21T06:10:19.171Z,63.93
2023-02-21T06:12:45.672Z,64.02
2023-02-21T06:15:13.035Z,63.89
2023-02-21T06:17:40.775Z,64.18
2023-02-21T06:20:14.914Z,64.15
2023-02-21T06:22:41.524Z,63.98
2023-02-21T06:25:08.500Z,64.82
2023-02-21T06:27:35.086Z,65.61
2023-02-21T06:30:01.955Z,65.76
2023-02-21T06:32:28.392Z,65.13
2023-02-21T06:34:54.776Z,65.32
2023-02-21T06:37:21.265Z,65.01
2023-02-21T06:39:47.795Z,64.27
2023-02-21T06:42:15.874Z,65.01
2023-02-21T06:44:49.687Z,64.23
2023-02-21T06:47:17.003Z,64.76
2023-02-21T06:49:43.733Z,64.61
2023-02-21T06:52:10.592Z,65.13
2023-02-21T06:54:37.347Z,64.52
2023-02-21T06:57:05.533Z,64.46
2023-02-21T06:59:32.101Z,64.31
2023-02-21T07:01:58.524Z,64.08
2023-02-21T07:04:25.222Z,63.61
2023-02-21T07:06:52.363Z,63.47
2023-02-21T07:09:18.796Z,64.21
2023-02-21T07:11:46.813Z,64.26
2023-02-21T07:14:13.992Z,64.19
2023-02-21T07:16:40.335Z,64.26
2023-02-21T07:19:06.637Z,64.93
2023-02-21T07:21:33.001Z,64.81
2023-02-21T07:23:59.377Z,64.58
2023-02-21T07:26:25.690Z,64.62
2023-02-21T07:28:52.030Z,64.00
2023-02-21T07:31:20.553Z,64.28
2023-02-21T07:33:47.080Z,63.67
2023-02-21T07:36:13.408Z,63.09
2023-02-21T07:38:39.909Z,63.35
2023-02-21T07:41:06.282Z,63.36
2023-02-21T07:43:33.010Z,63.76
2023-02-21T07:45:59.654Z,63.59
2023-02-21T07:48:26.090Z,63.08
2023-02-21T07:50:52.623Z,63.31
2023-02-21T07:53:19.105Z,62.57
2023-02-21T07:55:45.501Z,62.86
2023-02-21T07:58:12.014Z,63.57
2023-02-21T08:00:40.459Z,63.74
2023-02-21T08:03:07.390Z,64.75
2023-02-21T08:05:33.711Z,64.93
2023-02-21T08:08:00.023Z,65.11
2023-02-21T08:10:27.692Z,64.54
2023-02-21T08:12:54.055Z,64.40
2023-02-21T08:15:20.507Z,64.49
2023-02-21T08:17:50.504Z,64.34
2023-02-21T08:20:17.613Z,64.33
2023-02-21T08:22:44.018Z,64.47
2023-02-21T08:25:12.321Z,64.75
2023-02-21T08:27:40.672Z,65.16
2023-02-21T08:30:09.515Z,64.62
2023-02-21T08:32:36.165Z,65.15
2023-02-21T08:35:05.630Z,64.85
2023-02-21T08:37:37.482Z,65.01
2023-02-21T08:40:04.453Z,64.85
2023-02-21T08:42:30.769Z,65.11
2023-02-21T08:44:57.560Z,65.22
2023-02-21T08:47:24.295Z,65.14
2023-02-21T08:49:50.668Z,65.30
2023-02-21T08:52:19.065Z,65.40
2023-02-21T08:54:45.684Z,65.51
2023-02-21T08:57:13.033Z,65.20
2023-02-21T08:59:44.937Z,65.13
2023-02-21T09:02:19.782Z,65.50
2023-02-21T09:04:47.024Z,65.12
2023-02-21T09:07:14.954Z,65.04
2023-02-21T09:09:41.540Z,65.06
2023-02-21T09:12:08.525Z,65.53
2023-02-21T09:14:36.132Z,66.62
2023-02-21T09:17:03.254Z,66.18
2023-02-21T09:19:29.616Z,65.64
2023-02-21T09:21:56.080Z,64.78
2023-02-21T09:24:25.208Z,65.09
2023-02-21T09:26:58.913Z,64.71
2023-02-21T09:29:44.998Z,64.30
2023-02-21T09:32:12.306Z,63.83
2023-02-21T09:34:38.749Z,64.55
2023-02-21T09:37:06.135Z,64.06
2023-02-21T09:39:32.467Z,63.47
2023-02-21T09:41:59.017Z,62.96
2023-02-21T09:44:28.175Z,62.13
2023-02-21T09:47:02.278Z,61.86
2023-02-21T09:49:32.660Z,61.19
2023-02-21T09:52:01.025Z,61.23
2023-02-21T09:54:38.910Z,61.56
2023-02-21T09:57:13.509Z,62.15
2023-02-21T09:59:40.144Z,61.82
2023-02-21T10:02:38.848Z,62.21
2023-02-21T10:05:38.822Z,60.86
2023-02-21T10:08:32.904Z,60.23
2023-02-21T10:11:07.689Z,61.18
2023-02-21T10:13:43.457Z,60.77
2023-02-21T10:16:20.193Z,59.97
2023-02-21T10:19:19.620Z,58.98
2023-02-21T10:21:48.469Z,57.74
2023-02-21T10:24:20.387Z,56.92
2023-02-21T10:26:57.094Z,57.25
2023-02-21T10:29:26.689Z,56.50
2023-02-21T10:31:59.341Z,56.17
2023-02-21T10:34:28.120Z,55.85
2023-02-21T10:36:57.957Z,55.09
2023-02-21T10:39:43.075Z,54.56
2023-02-21T10:42:18.472Z,54.33
2023-02-21T10:44:45.521Z,54.25
2023-02-21T10:47:20.166Z,54.74
2023-02-21T10:49:54.681Z,54.35
2023-02-21T10:52:23.636Z,54.13
2023-02-21T10:55:03.971Z,53.63
2023-02-21T10:57:32.147Z,53.15
2023-02-21T10:59:58.643Z,53.02
2023-02-21T11:02:40.073Z,52.88
2023-02-21T11:05:11.881Z,53.03
2023-02-21T11:07:38.405Z,52.52
2023-02-21T11:10:28.446Z,52.33
2023-02-21T11:13:20.471Z,52.23
2023-02-21T11:15:47.272Z,52.18
2023-02-21T11:18:13.563Z,51.59
2023-02-21T11:20:40.276Z,51.24
2023-02-21T11:23:29.904Z,51.32
2023-02-21T11:26:07.665Z,50.37
2023-02-21T11:28:39.636Z,49.94
2023-02-21T11:31:18.081Z,50.01
2023-02-21T11:34:03.264Z,49.79
2023-02-21T11:36:32.558Z,49.55
2023-02-21T11:39:00.085Z,48.95
2023-02-21T11:41:35.857Z,49.27
2023-02-21T11:44:02.265Z,48.60
2023-02-21T11:46:39.890Z,48.40
2023-02-21T11:49:43.493Z,48.04
2023-02-21T11:52:14.416Z,48.30
2023-02-21T11:54:40.808Z,47.57
2023-02-21T11:57:16.191Z,47.45
2023-02-21T11:59:58.680Z,47.85
2023-02-21T12:02:31.158Z,47.23
2023-02-21T12:05:25.790Z,47.04
2023-02-21T12:08:10.629Z,46.66
2023-02-21T12:10:58.906Z,46.70
2023-02-21T12:13:41.958Z,45.77
2023-02-21T12:16:47.137Z,45.45
2023-02-21T12:19:36.014Z,44.35
2023-02-21T12:22:20.083Z,43.75
2023-02-21T12:25:20.223Z,43.06
2023-02-21T12:28:04.404Z,42.74
2023-02-21T12:30:36.634Z,42.68
2023-02-21T12:33:20.029Z,42.07
2023-02-21T12:36:12.234Z,41.41
2023-02-21T12:39:00.655Z,40.77
2023-02-21T12:41:51.202Z,40.58
2023-02-21T12:44:45.736Z,39.86
2023-02-21T12:47:27.948Z,38.88
2023-02-21T12:50:15.753Z,38.01
2023-02-21T12:53:05.265Z,37.10
2023-02-21T12:55:42.631Z,36.89
2023-02-21T12:58:33.374Z,36.27
2023-02-21T13:01:15.754Z,35.74
2023-02-21T13:03:54.018Z,34.85
2023-02-21T13:06:42.001Z,33.99
2023-02-21T13:09:17.700Z,32.77
2023-02-21T13:12:00.880Z,32.60
2023-02-21T13:14:41.935Z,31.86
2023-02-21T13:17:16.663Z,30.74
2023-02-21T13:19:47.169Z,29.94
2023-02-21T13:22:43.172Z,30.58
2023-02-21T13:25:12.273Z,29.75
2023-02-21T13:28:07.410Z,29.52
2023-02-21T13:30:47.030Z,29.00
2023-02-21T13:33:26.024Z,29.04
2023-02-21T13:35:52.829Z,29.07
2023-02-21T13:38:20.659Z,29.12
2023-02-21T13:40:54.922Z,29.02
2023-02-21T13:43:25.896Z,29.15
2023-02-21T13:45:52.801Z,29.06
2023-02-21T13:48:27.671Z,28.96
2023-02-21T13:50:59.528Z,28.90
2023-02-21T13:53:33.829Z,28.71
2023-02-21T13:56:00.292Z,28.51
2023-02-21T13:58:32.487Z,28.53
2023-02-21T14:01:30.230Z,28.04
2023-02-21T14:03:57.490Z,28.12
2023-02-21T14:06:30.379Z,28.52
2023-02-21T14:09:04.878Z,28.75
2023-02-21T14:11:38.910Z,28.51
2023-02-21T14:14:17.837Z,28.31
2023-02-21T14:16:52.933Z,28.28
2023-02-21T14:19:37.723Z,28.47
2023-02-21T14:22:14.390Z,28.52
2023-02-21T14:24:48.351Z,28.52
2023-02-21T14:27:14.672Z,28.40
2023-02-21T14:30:05.720Z,28.54
2023-02-21T14:32:52.641Z,28.78
2023-02-21T14:35:26.289Z,29.67
2023-02-21T14:38:20.633Z,29.53
2023-02-21T14:41:05.750Z,29.32
2023-02-21T14:43:54.129Z,29.40
2023-02-21T14:47:00.603Z,29.99
2023-02-21T14:49:53.295Z,30.19
2023-02-21T14:52:40.790Z,30.02
2023-02-21T14:55:29.801Z,30.00
2023-02-21T14:58:12.868Z,30.28
2023-02-21T15:01:00.503Z,29.87
2023-02-21T15:03:51.666Z,30.47
2023-02-21T15:06:22.580Z,30.56
2023-02-21T15:08:51.123Z,30.22
2023-02-21T15:11:26.503Z,30.25
2023-02-21T15:14:23.385Z,30.22
2023-02-21T15:17:01.665Z,30.23
2023-02-21T15:19:33.239Z,30.38
2023-02-21T15:22:25.826Z,30.45
2023-02-21T15:25:14.472Z,29.94
2023-02-21T15:27:47.284Z,30.79
2023-02-21T15:30:24.293Z,30.76
2023-02-21T15:33:05.380Z,30.10
2023-02-21T15:35:38.718Z,30.08
2023-02-21T15:38:16.254Z,30.66
2023-02-21T15:40:43.346Z,29.91
2023-02-21T15:43:27.326Z,30.37
2023-02-21T15:45:56.368Z,31.05
2023-02-21T15:48:22.879Z,31.28
2023-02-21T15:50:49.880Z,31.31
2023-02-21T15:53:24.607Z,31.16
2023-02-21T15:55:53.004Z,31.39
2023-02-21T15:58:26.617Z,30.99
2023-02-21T16:01:07.846Z,31.32
2023-02-21T16:03:42.747Z,31.20
2023-02-21T16:06:26.150Z,30.98
2023-02-21T16:09:01.879Z,31.36
2023-02-21T16:11:39.695Z,31.60
2023-02-21T16:14:14.697Z,32.04
2023-02-21T16:16:41.359Z,32.13
2023-02-21T16:19:08.962Z,32.19
2023-02-21T16:21:35.452Z,32.57
2023-02-21T16:24:32.178Z,32.97
2023-02-21T16:27:24.818Z,32.93
2023-02-21T16:29:51.219Z,33.00
2023-02-21T16:32:20.000Z,33.09
2023-02-21T16:34:47.497Z,33.32
2023-02-21T16:37:14.668Z,33.42
2023-02-21T16:39:42.201Z,33.97
2023-02-21T16:42:08.857Z,34.39
2023-02-21T16:44:35.185Z,34.89
2023-02-21T16:47:01.505Z,35.50
2023-02-21T16:49:27.829Z,35.15
2023-02-21T16:51:54.194Z,35.06
2023-02-21T16:54:20.690Z,35.23
2023-02-21T16:56:50.330Z,35.40
2023-02-21T16:59:21.167Z,35.35
2023-02-21T17:01:47.581Z,35.60
2023-02-21T17:04:24.001Z,36.12
2023-02-21T17:07:03.369Z,36.62
2023-02-21T17:09:33.345Z,36.69
2023-02-21T17:12:00.688Z,37.04
2023-02-21T17:14:27.006Z,37.37
2023-02-21T17:16:53.358Z,37.45
2023-02-21T17:19:21.140Z,37.72
2023-02-21T17:21:48.054Z,37.86
2023-02-21T17:24:15.457Z,37.85
2023-02-21T17:26:41.992Z,38.43
2023-02-21T17:29:09.519Z,38.12
2023-02-21T17:31:35.951Z,39.16
2023-02-21T17:34:02.688Z,39.54
2023-02-21T17:36:29.288Z,39.34
2023-02-21T17:38:58.905Z,39.50
2023-02-21T17:41:26.588Z,39.48
2023-02-21T17:43:52.934Z,40.22
2023-02-21T17:46:20.494Z,40.25
2023-02-21T17:48:46.948Z,40.16
2023-02-21T17:51:24.189Z,40.57
2023-02-21T17:53:51.380Z,40.67
2023-02-21T17:56:22.155Z,41.17
2023-02-21T17:58:48.576Z,41.02
2023-02-21T18:01:16.556Z,41.06
2023-02-21T18:03:43.109Z,41.17
2023-02-21T18:06:09.427Z,41.68
2023-02-21T18:08:35.980Z,41.92
2023-02-21T18:11:02.343Z,42.10
2023-02-21T18:13:28.710Z,42.35
2023-02-21T18:15:55.066Z,42.42
2023-02-21T18:18:21.456Z,43.54
2023-02-21T18:20:47.921Z,43.39
2023-02-21T18:23:15.376Z,43.03
2023-02-21T18:25:41.760Z,42.86
2023-02-21T18:28:08.390Z,42.55
2023-02-21T18:30:34.832Z,43.57
2023-02-21T18:33:01.637Z,43.32
2023-02-21T18:35:28.094Z,43.44
2023-02-21T18:37:54.444Z,43.63
2023-02-21T18:40:34.042Z,43.85
2023-02-21T18:43:07.992Z,44.21
2023-02-21T18:45:34.407Z,44.28
2023-02-21T18:48:02.000Z,44.44
2023-02-21T18:50:28.352Z,44.94
2023-02-21T18:52:54.701Z,44.88
2023-02-21T18:55:21.037Z,45.00
2023-02-21T18:57:47.849Z,45.65
2023-02-21T19:00:17.498Z,45.83
2023-02-21T19:02:44.112Z,45.77
2023-02-21T19:05:20.003Z,45.94
2023-02-21T19:07:46.989Z,46.33
2023-02-21T19:10:17.500Z,47.83
2023-02-21T19:12:44.237Z,47.51
2023-02-21T19:15:10.943Z,47.78
2023-02-21T19:17:37.340Z,47.40
2023-02-21T19:20:05.943Z,47.36
2023-02-21T19:22:32.502Z,47.64
2023-02-21T19:24:58.823Z,47.62
2023-02-21T19:27:25.224Z,48.41
2023-02-21T19:29:52.382Z,48.41
2023-02-21T19:32:19.304Z,48.63
2023-02-21T19:34:50.283Z,48.91
2023-02-21T19:37:17.456Z,48.90
2023-02-21T19:39:44.215Z,49.08
2023-02-21T19:42:10.985Z,49.75
2023-02-21T19:44:37.337Z,49.20
2023-02-21T19:47:04.167Z,49.52
2023-02-21T19:49:30.496Z,49.25
2023-02-21T19:51:58.801Z,49.60
2023-02-21T19:54:29.788Z,49.66
2023-02-21T19:56:59.272Z,49.51
2023-02-21T19:59:26.899Z,49.75
2023-02-21T20:01:54.120Z,49.84
2023-02-21T20:04:21.158Z,49.90
2023-02-21T20:06:48.242Z,50.54
2023-02-21T20:09:14.683Z,50.57
2023-02-21T20:11:41.090Z,50.85
2023-02-21T20:14:09.504Z,50.59
2023-02-21T20:16:41.022Z,51.04
2023-02-21T20:19:09.005Z,51.27
2023-02-21T20:21:35.495Z,51.63
2023-02-21T20:24:03.141Z,51.30
2023-02-21T20:26:30.074Z,51.34
2023-02-21T20:28:56.586Z,51.32
2023-02-21T20:31:28.279Z,51.82
2023-02-21T20:33:55.375Z,51.63
2023-02-21T20:36:31.096Z,51.66
2023-02-21T20:38:57.503Z,51.95
2023-02-21T20:41:28.926Z,51.85
2023-02-21T20:43:55.265Z,52.21
2023-02-21T20:46:22.749Z,52.21
2023-02-21T20:48:50.084Z,52.22
2023-02-21T20:51:17.865Z,52.35
2023-02-21T20:53:47.624Z,52.45
2023-02-21T20:56:14.023Z,52.29
2023-02-21T20:58:40.617Z,52.77
2023-02-21T21:01:07.026Z,52.91
2023-02-21T21:03:35.722Z,53.16
2023-02-21T21:06:02.775Z,53.10
2023-02-21T21:08:29.211Z,53.17
2023-02-21T21:10:55.609Z,53.46
2023-02-21T21:13:21.956Z,53.26
2023-02-21T21:15:48.539Z,53.32
2023-02-21T21:18:14.873Z,53.55
2023-02-21T21:20:41.339Z,53.37
2023-02-21T21:23:07.960Z,53.47
2023-02-21T21:25:34.558Z,53.78
2023-02-21T21:28:06.992Z,53.61
2023-02-21T21:30:33.397Z,53.64
2023-02-21T21:33:00.645Z,54.18
2023-02-21T21:35:32.738Z,54.11
2023-02-21T21:37:59.525Z,54.53
2023-02-21T21:40:26.824Z,54.26
2023-02-21T21:42:53.919Z,55.47
2023-02-21T21:45:25.218Z,55.80
2023-02-21T21:47:53.872Z,55.24
2023-02-21T21:50:21.677Z,54.78
2023-02-21T21:52:58.247Z,54.65
2023-02-21T21:55:27.426Z,54.68
2023-02-21T21:57:55.750Z,54.88
2023-02-21T22:00:24.901Z,54.88
2023-02-21T22:02:57.396Z,55.11
2023-02-21T22:05:35.243Z,54.87
2023-02-21T22:08:02.191Z,54.93
2023-02-21T22:10:29.559Z,55.07
2023-02-21T22:12:59.602Z,55.00
2023-02-21T22:15:28.664Z,55.26
2023-02-21T22:17:56.421Z,55.60
2023-02-21T22:20:28.385Z,55.43
2023-02-21T22:22:59.022Z,55.46
2023-02-21T22:25:27.746Z,55.65
2023-02-21T22:27:54.165Z,55.61
2023-02-21T22:30:22.035Z,56.38
2023-02-21T22:32:48.956Z,55.65
2023-02-21T22:35:18.413Z,55.73
2023-02-21T22:37:52.707Z,55.78
2023-02-21T22:40:25.147Z,55.92
2023-02-21T22:42:56.674Z,56.26
2023-02-21T22:45:24.023Z,56.02
2023-02-21T22:47:52.042Z,56.58
2023-02-21T22:50:20.180Z,56.21
2023-02-21T22:52:59.407Z,56.21
2023-02-21T22:55:26.909Z,56.37
2023-02-21T22:57:54.911Z,56.62
2023-02-21T23:00:23.891Z,56.40
2023-02-21T23:02:51.029Z,56.49
2023-02-21T23:05:20.240Z,56.32
2023-02-21T23:07:48.324Z,56.82
2023-02-21T23:10:23.467Z,56.82
2023-02-21T23:12:52.093Z,57.12
2023-02-21T23:15:19.564Z,56.93
2023-02-21T23:17:48.588Z,57.22
2023-02-21T23:20:22.146Z,57.25
2023-02-21T23:22:53.508Z,57.09
2023-02-21T23:25:25.468Z,57.36
2023-02-21T23:27:57.726Z,57.57
2023-02-21T23:30:27.148Z,57.42
2023-02-21T23:32:55.248Z,57.19
2023-02-21T23:35:23.993Z,57.78
2023-02-21T23:37:53.167Z,58.24
2023-02-21T23:40:22.787Z,58.16
2023-02-21T23:42:51.947Z,58.00
2023-02-21T23:45:20.449Z,58.17
2023-02-21T23:47:52.986Z,58.13
2023-02-21T23:50:23.503Z,58.10
2023-02-21T23:52:52.043Z,57.83
2023-02-21T23:55:27.821Z,57.88
2023-02-21T23:57:56.409Z,57.83
